Terminal Aerodrome Forecast
Issued by NWS

Home | Current Version | Previous Version | Graphics & Text | Print | Product List | Glossary On
Versions: 1 2 3 4 5 6 7 8 9 10 11 12 13 14 15 16 17 18 19 20 21
944
FTUS43 KFGF 111720
TAFBJI
TAF
KBJI 111720Z 1118/1218 00000KT P6SM OVC070
     FM112100 29006KT P6SM OVC030
     FM120300 30009KT P6SM OVC050
     FM120500 31011KT P6SM BKN250=

USA.gov is the U.S. government's official web portal to all federal, state and local government web resources and services.